Time;durP1;ratioP1;P1;durP2;ratioP2;P2;SDS_P1;SDS_P2;PMS_P1;PMS_P2;Temp;Humidity;BMP_temperature;BMP_pressure;BME280_temperature;BME280_humidity;BME280_pressure;Samples;Min_cycle;Max_cycle;Signal;HPM_P1;HPM_P2
2024/01/22 00:01:56;;;;;;;7.80;4.40;;;3.70;99.90;;;;;;5094325;28;20474;-65
2024/01/22 00:04:23;;;;;;;6.33;4.20;;;3.70;99.90;;;;;;5095258;28;20523;-66
2024/01/22 00:06:52;;;;;;;6.43;4.20;;;3.70;99.90;;;;;;5096477;28;20490;-65
2024/01/22 00:09:20;;;;;;;5.10;4.30;;;3.70;99.90;;;;;;5095431;28;20542;-65
2024/01/22 00:11:47;;;;;;;5.57;4.13;;;3.60;99.90;;;;;;5096151;28;20447;-65
2024/01/22 00:14:14;;;;;;;7.00;4.13;;;3.70;99.90;;;;;;5096062;28;20450;-64
2024/01/22 00:16:41;;;;;;;13.23;5.33;;;3.70;99.90;;;;;;5096128;28;20448;-65
2024/01/22 00:19:08;;;;;;;4.80;4.20;;;3.70;99.90;;;;;;5095916;28;20423;-64
2024/01/22 00:21:35;;;;;;;10.27;5.40;;;3.70;99.90;;;;;;5096072;28;20460;-67
2024/01/22 00:24:07;;;;;;;7.40;4.27;;;3.70;99.90;;;;;;5096371;28;20454;-66
2024/01/22 00:26:36;;;;;;;8.00;4.97;;;3.70;99.90;;;;;;5096233;28;20746;-65
2024/01/22 00:29:03;;;;;;;8.10;5.47;;;3.70;99.90;;;;;;5096360;28;20525;-66
2024/01/22 00:31:33;;;;;;;10.10;4.70;;;3.70;99.90;;;;;;5096491;28;20458;-64
2024/01/22 00:33:59;;;;;;;10.27;5.67;;;3.70;99.90;;;;;;5096300;28;20427;-66
2024/01/22 00:36:29;;;;;;;10.23;5.90;;;3.70;99.90;;;;;;5096063;28;20454;-64
2024/01/22 00:38:55;;;;;;;7.50;4.80;;;3.70;99.90;;;;;;5096282;28;20432;-65
2024/01/22 00:41:22;;;;;;;6.97;4.50;;;3.80;99.90;;;;;;5096058;28;20486;-67
2024/01/22 00:43:51;;;;;;;5.60;4.00;;;3.80;99.90;;;;;;5096623;28;20440;-68
2024/01/22 00:46:17;;;;;;;8.93;4.63;;;3.80;99.90;;;;;;5095630;28;20451;-66
2024/01/22 00:48:47;;;;;;;9.23;4.43;;;3.80;99.90;;;;;;5095809;28;20482;-66
2024/01/22 00:51:17;;;;;;;9.23;5.80;;;3.80;99.90;;;;;;5095644;28;20475;-65
2024/01/22 00:53:44;;;;;;;7.20;3.90;;;3.80;99.90;;;;;;5096346;28;20450;-65
2024/01/22 00:56:11;;;;;;;5.00;4.10;;;3.90;99.90;;;;;;5095705;28;20440;-66
2024/01/22 00:58:38;;;;;;;7.40;4.30;;;3.90;99.90;;;;;;5075771;28;20495;-67
2024/01/22 01:01:08;;;;;;;6.20;4.40;;;3.90;99.90;;;;;;5075351;28;20504;-67
2024/01/22 01:03:35;;;;;;;7.67;4.97;;;3.90;99.90;;;;;;5075515;28;20487;-68
2024/01/22 01:06:02;;;;;;;8.33;3.90;;;3.90;99.90;;;;;;5095576;28;20470;-67
2024/01/22 01:08:30;;;;;;;5.90;4.73;;;4.00;99.90;;;;;;5095614;28;20482;-69
2024/01/22 01:10:57;;;;;;;5.37;3.27;;;4.00;99.90;;;;;;5095904;28;20479;-67
2024/01/22 01:13:24;;;;;;;5.83;4.13;;;4.00;99.90;;;;;;5096528;28;20443;-66
2024/01/22 01:15:50;;;;;;;7.17;4.00;;;4.00;99.90;;;;;;5096581;28;20423;-64
2024/01/22 01:18:19;;;;;;;7.80;3.97;;;4.00;99.90;;;;;;5096829;28;20431;-67
2024/01/22 01:20:46;;;;;;;8.67;4.73;;;4.00;99.90;;;;;;5096734;28;20456;-65
2024/01/22 01:23:13;;;;;;;8.90;4.30;;;4.00;99.90;;;;;;5097109;28;20471;-65
2024/01/22 01:25:40;;;;;;;5.57;3.50;;;4.10;99.90;;;;;;5095675;28;20436;-64
2024/01/22 01:28:07;;;;;;;11.53;4.10;;;4.10;99.90;;;;;;5095120;28;20468;-66
2024/01/22 01:30:34;;;;;;;5.80;4.00;;;4.10;99.90;;;;;;5095323;28;20566;-64
2024/01/22 01:33:02;;;;;;;7.43;3.60;;;4.20;99.90;;;;;;5095926;28;20447;-66
2024/01/22 01:35:31;;;;;;;4.10;3.70;;;4.20;99.90;;;;;;5095332;28;20444;-65
2024/01/22 01:38:00;;;;;;;9.37;4.03;;;4.20;99.90;;;;;;5095816;28;20431;-65
2024/01/22 01:40:27;;;;;;;9.47;3.10;;;4.20;99.90;;;;;;5096218;28;20428;-67
2024/01/22 01:42:55;;;;;;;8.10;5.00;;;4.30;99.90;;;;;;5096005;28;20448;-67
2024/01/22 01:45:22;;;;;;;5.33;3.17;;;4.30;99.90;;;;;;5094903;28;20474;-65
2024/01/22 01:47:49;;;;;;;6.40;3.77;;;4.30;99.90;;;;;;5095849;28;20470;-67
2024/01/22 01:50:17;;;;;;;5.80;3.60;;;4.30;99.90;;;;;;5095977;28;20490;-66
2024/01/22 01:52:46;;;;;;;5.10;3.50;;;4.30;99.90;;;;;;5096104;28;20440;-66
2024/01/22 01:55:13;;;;;;;5.13;3.67;;;4.30;99.90;;;;;;5096031;28;20452;-67
2024/01/22 01:57:41;;;;;;;6.40;4.30;;;4.30;99.90;;;;;;5095513;28;20474;-63
2024/01/22 02:00:11;;;;;;;5.83;3.23;;;4.30;99.90;;;;;;5095127;28;20469;-65
2024/01/22 02:02:39;;;;;;;4.30;3.43;;;4.30;99.90;;;;;;5095743;28;20495;-69
2024/01/22 02:05:09;;;;;;;5.30;4.17;;;4.30;99.90;;;;;;5094547;28;20447;-66
2024/01/22 02:07:36;;;;;;;5.90;3.60;;;4.30;99.90;;;;;;5095824;28;20440;-63
2024/01/22 02:10:05;;;;;;;4.90;3.23;;;4.40;99.90;;;;;;5094993;28;20456;-63
2024/01/22 02:12:32;;;;;;;4.80;3.53;;;4.30;99.90;;;;;;5095355;28;20444;-66
2024/01/22 02:14:59;;;;;;;8.70;3.80;;;4.30;99.90;;;;;;5098490;28;20472;-65
2024/01/22 02:17:26;;;;;;;11.17;4.33;;;4.30;99.90;;;;;;5098995;28;20444;-66
2024/01/22 02:19:53;;;;;;;4.60;2.73;;;4.30;99.90;;;;;;5099337;28;20446;-66
2024/01/22 02:22:20;;;;;;;6.10;3.43;;;4.40;99.90;;;;;;5098940;28;20457;-66
2024/01/22 02:24:48;;;;;;;6.60;4.17;;;4.40;99.90;;;;;;5099144;28;20452;-66
2024/01/22 02:27:15;;;;;;;4.87;3.13;;;4.40;99.90;;;;;;5099356;28;20439;-67
2024/01/22 02:29:42;;;;;;;7.90;3.20;;;4.40;99.90;;;;;;5098538;28;20468;-66
2024/01/22 02:32:09;;;;;;;6.53;3.37;;;4.40;99.90;;;;;;5098374;28;20453;-66
2024/01/22 02:34:37;;;;;;;6.07;4.10;;;4.40;99.90;;;;;;5098308;28;20516;-67
2024/01/22 02:37:04;;;;;;;6.50;3.80;;;4.40;99.90;;;;;;5098492;28;20486;-64
2024/01/22 02:39:31;;;;;;;5.63;3.40;;;4.50;99.90;;;;;;5098189;28;20448;-64
2024/01/22 02:41:59;;;;;;;4.73;3.27;;;4.50;99.90;;;;;;5098538;28;20483;-66
2024/01/22 02:44:26;;;;;;;4.80;3.30;;;4.60;99.90;;;;;;5098569;28;21048;-65
2024/01/22 02:46:54;;;;;;;7.90;5.00;;;4.60;99.90;;;;;;5098313;28;20431;-67
2024/01/22 02:49:21;;;;;;;5.20;3.47;;;4.70;99.90;;;;;;5099129;28;20454;-67
2024/01/22 02:51:51;;;;;;;4.33;3.50;;;4.70;99.90;;;;;;5098383;28;20436;-66
2024/01/22 02:54:18;;;;;;;3.20;2.70;;;4.70;99.90;;;;;;5098194;28;20463;-65
2024/01/22 02:56:45;;;;;;;5.83;3.00;;;4.70;99.90;;;;;;5097999;28;20478;-66
2024/01/22 02:59:13;;;;;;;6.73;3.07;;;4.80;99.90;;;;;;5097863;28;20470;-67
2024/01/22 03:01:43;;;;;;;5.97;3.17;;;4.80;99.90;;;;;;5098127;28;20441;-66
2024/01/22 03:04:10;;;;;;;6.70;3.70;;;4.90;99.90;;;;;;5097974;28;20448;-64
2024/01/22 03:06:38;;;;;;;8.50;3.70;;;4.90;99.90;;;;;;5098233;28;20471;-65
2024/01/22 03:09:05;;;;;;;4.27;2.77;;;4.90;99.90;;;;;;5097420;28;20510;-64
2024/01/22 03:11:32;;;;;;;3.40;2.90;;;4.90;99.90;;;;;;5097993;28;20467;-66
2024/01/22 03:14:01;;;;;;;5.27;3.80;;;4.90;99.90;;;;;;5097852;28;20435;-62
2024/01/22 03:16:29;;;;;;;4.60;3.33;;;5.00;99.90;;;;;;5098288;28;20457;-66
2024/01/22 03:18:56;;;;;;;4.70;3.30;;;5.00;99.90;;;;;;5098492;28;20441;-67
2024/01/22 03:21:23;;;;;;;4.93;3.00;;;5.00;99.90;;;;;;5098000;28;20453;-65
2024/01/22 03:23:50;;;;;;;4.10;2.80;;;5.00;99.90;;;;;;5097807;28;20483;-68
2024/01/22 03:26:21;;;;;;;4.43;2.97;;;5.00;99.90;;;;;;5097578;28;20905;-67
2024/01/22 03:28:48;;;;;;;3.50;2.90;;;5.00;99.90;;;;;;5096921;28;20492;-65
2024/01/22 03:31:23;;;;;;;7.60;3.70;;;5.00;99.90;;;;;;5098200;28;20476;-65
2024/01/22 03:33:51;;;;;;;6.27;3.53;;;5.10;99.90;;;;;;5098420;28;20443;-65
2024/01/22 03:36:18;;;;;;;13.23;3.63;;;5.00;99.90;;;;;;5097589;28;20436;-66
2024/01/22 03:38:45;;;;;;;4.87;3.13;;;5.10;99.90;;;;;;5097902;28;20475;-66
2024/01/22 03:41:12;;;;;;;7.40;3.50;;;5.10;99.90;;;;;;5098261;28;20465;-66
2024/01/22 03:43:39;;;;;;;7.73;3.77;;;5.10;99.90;;;;;;5097069;28;20465;-65
2024/01/22 03:46:06;;;;;;;6.10;3.90;;;5.20;99.90;;;;;;5097496;28;20457;-66
2024/01/22 03:48:33;;;;;;;5.70;3.13;;;5.20;99.90;;;;;;5097232;28;20441;-67
2024/01/22 03:51:01;;;;;;;6.07;4.40;;;5.20;99.90;;;;;;5097699;28;20465;-66
2024/01/22 03:53:28;;;;;;;4.83;2.87;;;5.20;99.90;;;;;;5096696;28;20999;-65
2024/01/22 03:55:55;;;;;;;6.10;3.50;;;5.20;99.90;;;;;;5096943;28;20468;-65
2024/01/22 03:58:22;;;;;;;3.33;2.53;;;5.20;99.90;;;;;;5097014;28;20458;-66
2024/01/22 04:00:49;;;;;;;6.70;3.50;;;5.20;99.90;;;;;;5096958;28;20441;-66
2024/01/22 04:03:16;;;;;;;5.53;3.17;;;5.30;99.90;;;;;;5096540;28;20487;-65
2024/01/22 04:05:43;;;;;;;3.20;2.70;;;5.30;99.90;;;;;;5096308;28;20465;-67
2024/01/22 04:08:11;;;;;;;6.77;3.97;;;5.30;99.90;;;;;;5096812;28;20508;-64
2024/01/22 04:10:38;;;;;;;5.30;2.90;;;5.30;99.90;;;;;;5096286;28;20483;-66
2024/01/22 04:13:05;;;;;;;5.90;3.20;;;5.30;99.90;;;;;;5096711;28;20436;-66
2024/01/22 04:15:32;;;;;;;4.80;3.20;;;5.30;99.90;;;;;;5096772;28;20444;-66
2024/01/22 04:17:59;;;;;;;5.53;3.83;;;5.30;99.90;;;;;;5096385;28;20904;-67
2024/01/22 04:20:26;;;;;;;4.90;3.30;;;5.30;99.90;;;;;;5096496;28;20516;-67
2024/01/22 04:22:53;;;;;;;4.23;3.20;;;5.30;99.90;;;;;;5096819;28;20428;-67
2024/01/22 04:25:21;;;;;;;5.07;3.00;;;5.30;99.90;;;;;;5096245;28;20472;-66
2024/01/22 04:27:48;;;;;;;3.83;3.20;;;5.30;99.90;;;;;;5096173;28;20444;-66
2024/01/22 04:30:15;;;;;;;4.23;3.20;;;5.30;99.90;;;;;;5096601;28;20508;-65
2024/01/22 04:32:44;;;;;;;3.03;2.67;;;5.30;99.90;;;;;;5096547;28;20444;-66
2024/01/22 04:35:10;;;;;;;5.10;2.90;;;5.30;99.90;;;;;;5096546;28;20440;-66
2024/01/22 04:37:37;;;;;;;4.63;3.00;;;5.30;99.90;;;;;;5096547;28;20901;-65
2024/01/22 04:40:11;;;;;;;3.77;2.70;;;5.30;99.90;;;;;;5096555;28;20459;-66
2024/01/22 04:42:41;;;;;;;4.80;2.87;;;5.40;99.90;;;;;;5096689;28;20450;-66
2024/01/22 04:45:08;;;;;;;4.60;2.93;;;5.40;99.90;;;;;;5096818;28;20436;-66
2024/01/22 04:47:35;;;;;;;4.07;2.80;;;5.40;99.90;;;;;;5096755;28;20462;-65
2024/01/22 04:50:02;;;;;;;5.27;3.00;;;5.50;99.90;;;;;;5096586;28;20437;-66
2024/01/22 04:52:30;;;;;;;3.80;3.13;;;5.50;99.90;;;;;;5096765;28;20467;-66
2024/01/22 04:54:57;;;;;;;5.47;3.07;;;5.60;99.90;;;;;;5096167;28;20472;-65
2024/01/22 04:57:24;;;;;;;3.03;2.23;;;5.60;99.90;;;;;;5096616;28;20453;-67
2024/01/22 04:59:54;;;;;;;4.30;3.13;;;5.50;99.90;;;;;;5096060;28;20433;-62
2024/01/22 05:02:27;;;;;;;7.60;2.80;;;5.60;99.90;;;;;;5096626;28;20879;-67
2024/01/22 05:04:56;;;;;;;4.50;1.77;;;5.60;99.90;;;;;;5095416;28;20448;-66
2024/01/22 05:07:23;;;;;;;6.37;3.07;;;5.60;99.90;;;;;;5096010;28;20476;-67
2024/01/22 05:09:50;;;;;;;5.30;3.37;;;5.50;99.90;;;;;;5095753;28;20460;-67
2024/01/22 05:12:17;;;;;;;3.60;2.70;;;5.50;99.90;;;;;;5096120;28;20475;-65
2024/01/22 05:14:44;;;;;;;6.27;2.70;;;5.50;99.90;;;;;;5096066;28;20456;-67
2024/01/22 05:17:12;;;;;;;4.83;3.30;;;5.60;99.90;;;;;;5095881;28;20432;-66
2024/01/22 05:19:39;;;;;;;3.97;2.73;;;5.60;99.90;;;;;;5096384;28;20491;-66
2024/01/22 05:22:06;;;;;;;7.63;2.60;;;5.70;99.90;;;;;;5096525;28;20457;-66
2024/01/22 05:24:35;;;;;;;3.93;1.77;;;5.70;99.90;;;;;;5096772;28;20490;-67
2024/01/22 05:27:05;;;;;;;6.77;2.60;;;5.70;99.90;;;;;;5096030;28;20468;-65
2024/01/22 05:29:32;;;;;;;5.63;2.30;;;5.80;99.90;;;;;;5096071;28;20493;-66
2024/01/22 05:31:58;;;;;;;3.37;2.60;;;5.80;99.90;;;;;;5095363;28;20477;-65
2024/01/22 05:34:27;;;;;;;7.23;2.10;;;5.80;99.90;;;;;;5095535;28;20465;-64
2024/01/22 05:36:55;;;;;;;2.30;1.90;;;5.90;99.90;;;;;;5095228;28;20464;-66
2024/01/22 05:39:21;;;;;;;2.37;2.03;;;5.90;99.90;;;;;;5094452;28;20444;-66
2024/01/22 05:41:48;;;;;;;3.20;2.10;;;5.80;99.90;;;;;;5094816;28;20445;-66
2024/01/22 05:44:15;;;;;;;3.83;2.50;;;5.90;99.90;;;;;;5094280;28;20484;-66
2024/01/22 05:46:45;;;;;;;3.20;2.00;;;5.90;99.90;;;;;;5094453;28;20487;-66
2024/01/22 05:49:12;;;;;;;3.93;1.90;;;6.00;99.90;;;;;;5097407;28;20436;-65
2024/01/22 05:51:40;;;;;;;5.90;2.47;;;6.00;99.90;;;;;;5098938;28;20469;-66
2024/01/22 05:54:07;;;;;;;3.93;1.67;;;6.10;99.90;;;;;;5099422;28;20536;-68
2024/01/22 05:56:34;;;;;;;2.23;1.60;;;6.10;99.90;;;;;;5098966;28;20560;-66
2024/01/22 05:59:03;;;;;;;2.50;1.73;;;6.20;99.90;;;;;;5098743;28;20441;-66
2024/01/22 06:01:30;;;;;;;3.13;1.67;;;6.30;99.90;;;;;;5098911;28;20498;-66
2024/01/22 06:04:00;;;;;;;5.23;2.53;;;6.40;99.90;;;;;;5098394;28;20449;-66
2024/01/22 06:06:27;;;;;;;2.00;1.80;;;6.40;99.90;;;;;;5098501;28;20478;-65
2024/01/22 06:08:58;;;;;;;2.97;1.47;;;6.50;99.90;;;;;;5097966;28;20476;-66
2024/01/22 06:11:26;;;;;;;3.43;1.50;;;6.50;99.90;;;;;;5098105;28;20488;-66
2024/01/22 06:13:53;;;;;;;2.07;1.77;;;6.60;99.90;;;;;;5099116;28;20436;-65
2024/01/22 06:16:21;;;;;;;2.63;1.40;;;6.70;99.90;;;;;;5098537;28;20414;-67
2024/01/22 06:18:50;;;;;;;2.40;2.03;;;6.80;99.90;;;;;;5098190;28;20456;-66
2024/01/22 06:21:17;;;;;;;2.13;1.60;;;6.80;99.90;;;;;;5097944;28;20468;-64
2024/01/22 06:23:46;;;;;;;3.90;1.40;;;6.90;99.90;;;;;;5098300;28;20565;-66
2024/01/22 06:26:15;;;;;;;2.20;1.40;;;6.90;99.90;;;;;;5097683;28;20459;-66
2024/01/22 06:28:42;;;;;;;2.00;1.80;;;7.00;99.90;;;;;;5097814;28;20450;-65
2024/01/22 06:31:11;;;;;;;2.80;2.10;;;7.00;99.90;;;;;;5097690;28;20554;-67
2024/01/22 06:33:38;;;;;;;1.50;1.13;;;7.10;99.90;;;;;;5098034;28;20456;-67
2024/01/22 06:36:06;;;;;;;2.80;1.80;;;7.10;99.90;;;;;;5098242;28;20460;-67
2024/01/22 06:38:38;;;;;;;2.40;1.73;;;7.20;99.90;;;;;;5097195;28;20441;-67
2024/01/22 06:41:11;;;;;;;4.10;1.60;;;7.20;99.90;;;;;;5097562;28;20456;-65
2024/01/22 06:43:43;;;;;;;2.70;1.40;;;7.20;99.90;;;;;;5096870;28;20452;-65
2024/01/22 06:46:10;;;;;;;2.40;1.43;;;7.30;99.90;;;;;;5097281;28;20473;-66
2024/01/22 06:48:38;;;;;;;5.03;1.50;;;7.30;99.90;;;;;;5097451;28;20449;-64
2024/01/22 06:51:08;;;;;;;2.83;1.60;;;7.30;99.90;;;;;;5096232;28;20476;-65
2024/01/22 06:53:35;;;;;;;2.40;1.40;;;7.30;99.90;;;;;;5095908;28;20440;-66
2024/01/22 06:56:02;;;;;;;6.80;1.70;;;7.40;99.90;;;;;;5096462;28;20437;-67
2024/01/22 06:58:29;;;;;;;2.43;1.30;;;7.40;99.90;;;;;;5097872;28;20465;-66
2024/01/22 07:00:57;;;;;;;7.63;2.53;;;7.40;99.90;;;;;;5095921;28;20476;-66
2024/01/22 07:03:24;;;;;;;2.13;1.60;;;7.40;99.90;;;;;;5094076;28;20465;-66
2024/01/22 07:05:54;;;;;;;4.50;1.50;;;7.40;99.90;;;;;;5096676;28;20512;-67
2024/01/22 07:08:23;;;;;;;1.93;1.30;;;7.40;99.90;;;;;;5098722;28;20425;-67
2024/01/22 07:10:51;;;;;;;2.33;1.60;;;7.40;99.90;;;;;;5094245;28;20497;-65
2024/01/22 07:13:18;;;;;;;3.10;1.40;;;7.40;99.90;;;;;;5096414;28;20450;-68
2024/01/22 07:15:44;;;;;;;1.83;1.57;;;7.50;99.90;;;;;;5096664;28;20459;-65
2024/01/22 07:18:13;;;;;;;2.60;1.37;;;7.50;99.90;;;;;;5096979;28;20461;-66
2024/01/22 07:20:40;;;;;;;3.00;1.60;;;7.50;99.90;;;;;;5097468;28;20499;-66
2024/01/22 07:23:07;;;;;;;4.13;1.63;;;7.50;99.90;;;;;;5098879;28;20444;-66
2024/01/22 07:25:37;;;;;;;4.40;1.67;;;7.50;99.90;;;;;;5097239;28;20481;-66
2024/01/22 07:28:04;;;;;;;3.30;1.67;;;7.50;99.90;;;;;;5096003;28;20470;-66
2024/01/22 07:30:36;;;;;;;3.17;2.03;;;7.50;99.90;;;;;;5097138;28;20445;-66
2024/01/22 07:33:03;;;;;;;2.77;1.80;;;7.50;99.90;;;;;;5097522;28;20469;-65
2024/01/22 07:35:31;;;;;;;1.60;1.27;;;7.50;99.90;;;;;;5097311;28;20428;-66
2024/01/22 07:37:58;;;;;;;1.80;1.30;;;7.50;99.90;;;;;;5096646;28;20493;-65
2024/01/22 07:40:25;;;;;;;2.03;1.57;;;7.50;99.90;;;;;;5097243;28;20449;-66
2024/01/22 07:42:52;;;;;;;3.87;1.60;;;7.50;99.90;;;;;;5097832;28;20435;-66
2024/01/22 07:45:19;;;;;;;2.53;1.40;;;7.50;99.90;;;;;;5098147;28;20461;-66
2024/01/22 07:47:45;;;;;;;4.00;1.60;;;7.50;99.90;;;;;;5096297;28;20484;-64
2024/01/22 07:50:14;;;;;;;2.03;1.50;;;7.50;99.90;;;;;;5097457;28;20484;-66
2024/01/22 07:52:42;;;;;;;2.80;1.70;;;7.60;99.90;;;;;;5097456;28;20648;-64
2024/01/22 07:55:11;;;;;;;2.47;1.63;;;7.50;99.90;;;;;;5097491;28;20439;-67
2024/01/22 07:57:38;;;;;;;2.60;1.37;;;7.60;99.90;;;;;;5094905;28;20472;-63
2024/01/22 08:00:11;;;;;;;2.63;1.80;;;7.60;99.90;;;;;;5094130;28;20462;-66
2024/01/22 08:02:38;;;;;;;2.07;1.30;;;7.60;99.90;;;;;;5097046;28;20556;-65
2024/01/22 08:05:05;;;;;;;2.27;1.47;;;7.60;99.90;;;;;;5096741;28;20452;-64
2024/01/22 08:07:32;;;;;;;2.73;1.30;;;7.60;99.90;;;;;;5096603;28;20461;-63
2024/01/22 08:10:00;;;;;;;2.40;1.60;;;7.60;99.90;;;;;;5096544;28;20452;-64
2024/01/22 08:12:27;;;;;;;1.80;1.23;;;7.60;99.90;;;;;;5095215;28;20477;-62
2024/01/22 08:14:54;;;;;;;2.33;1.40;;;7.60;99.90;;;;;;5096930;28;20469;-64
2024/01/22 08:17:24;;;;;;;2.63;2.10;;;7.50;99.90;;;;;;5096371;28;20457;-65
2024/01/22 08:19:50;;;;;;;5.73;1.93;;;7.40;99.90;;;;;;5095013;28;20497;-65
2024/01/22 08:22:17;;;;;;;2.90;1.37;;;7.30;99.90;;;;;;5093459;28;20437;-65
2024/01/22 08:24:44;;;;;;;5.10;1.60;;;7.20;99.90;;;;;;5094112;28;20456;-63
2024/01/22 08:27:12;;;;;;;3.53;1.33;;;7.10;99.90;;;;;;5094496;28;20419;-65
2024/01/22 08:29:39;;;;;;;2.23;1.67;;;7.00;99.90;;;;;;5095088;28;20506;-61
2024/01/22 08:32:07;;;;;;;1.97;1.60;;;6.90;99.90;;;;;;5094444;28;20486;-62
2024/01/22 08:34:37;;;;;;;2.47;1.47;;;6.80;99.90;;;;;;5089423;28;20917;-66
2024/01/22 08:37:04;;;;;;;5.07;1.83;;;6.80;99.90;;;;;;5097148;28;20445;-54
2024/01/22 08:39:32;;;;;;;2.97;1.77;;;6.70;99.90;;;;;;5090857;28;20490;-67
2024/01/22 08:41:58;;;;;;;2.60;1.43;;;6.60;99.90;;;;;;5074085;28;20448;-66
2024/01/22 08:44:27;;;;;;;5.30;1.50;;;6.50;99.90;;;;;;5074056;28;20507;-63
2024/01/22 08:46:54;;;;;;;2.53;1.63;;;6.50;99.90;;;;;;5073931;28;20447;-66
2024/01/22 08:49:21;;;;;;;1.43;1.17;;;6.40;99.90;;;;;;5073791;28;20527;-66
2024/01/22 08:51:49;;;;;;;3.63;1.60;;;6.40;99.90;;;;;;5073269;28;20984;-63
2024/01/22 08:54:16;;;;;;;4.47;1.57;;;6.30;99.90;;;;;;5073895;28;20533;-67
2024/01/22 08:56:43;;;;;;;4.50;1.80;;;6.30;99.90;;;;;;5074022;28;20833;-66
2024/01/22 08:59:10;;;;;;;1.70;1.37;;;6.30;99.90;;;;;;5073153;28;20436;-67
2024/01/22 09:01:38;;;;;;;2.67;1.60;;;6.30;99.90;;;;;;5073876;28;20465;-66
2024/01/22 09:04:06;;;;;;;3.33;1.73;;;6.30;99.90;;;;;;5073532;28;20485;-64
2024/01/22 09:06:33;;;;;;;8.00;2.70;;;6.30;99.90;;;;;;5073253;28;20476;-63
2024/01/22 09:08:59;;;;;;;2.50;1.53;;;6.30;99.90;;;;;;5073797;28;20467;-69
2024/01/22 09:11:26;;;;;;;2.20;1.83;;;6.30;99.90;;;;;;5073645;28;20469;-67
2024/01/22 09:13:53;;;;;;;3.63;2.00;;;6.30;99.90;;;;;;5073706;28;20535;-69
2024/01/22 09:16:21;;;;;;;10.53;1.67;;;6.30;99.90;;;;;;5073756;28;20885;-64
2024/01/22 09:18:49;;;;;;;3.70;1.73;;;6.30;99.90;;;;;;5073914;28;21166;-66
2024/01/22 09:21:16;;;;;;;2.23;1.63;;;6.30;99.90;;;;;;5073640;28;20444;-66
2024/01/22 09:23:43;;;;;;;4.63;2.07;;;6.30;99.90;;;;;;5076671;28;20860;-73
2024/01/22 09:26:10;;;;;;;6.03;1.77;;;6.30;99.90;;;;;;5076733;28;20975;-68
2024/01/22 09:28:40;;;;;;;1.70;1.53;;;6.30;99.90;;;;;;5077288;28;20587;-67
2024/01/22 09:31:07;;;;;;;1.70;1.43;;;6.40;99.90;;;;;;5077552;28;20554;-70
2024/01/22 09:33:34;;;;;;;2.93;1.67;;;6.40;99.90;;;;;;5077358;28;20480;-70
2024/01/22 09:36:04;;;;;;;2.17;1.50;;;6.40;99.90;;;;;;5077265;28;20433;-67
2024/01/22 09:38:31;;;;;;;1.93;1.57;;;6.40;99.90;;;;;;5076692;28;20530;-65
2024/01/22 09:40:58;;;;;;;1.90;1.60;;;6.40;99.90;;;;;;5077508;28;20526;-67
2024/01/22 09:43:25;;;;;;;3.10;1.73;;;6.50;99.90;;;;;;5076799;28;20437;-66
2024/01/22 09:45:54;;;;;;;2.60;1.53;;;6.50;99.90;;;;;;5076644;28;20500;-70
2024/01/22 09:48:21;;;;;;;6.00;2.50;;;6.50;99.90;;;;;;5088264;28;20459;-70
2024/01/22 09:50:51;;;;;;;2.73;2.10;;;6.50;99.90;;;;;;5088134;28;20484;-65
2024/01/22 09:53:21;;;;;;;4.07;1.50;;;6.60;99.90;;;;;;5088411;28;20482;-65
2024/01/22 09:55:51;;;;;;;3.87;1.60;;;6.60;99.90;;;;;;5078596;28;20523;-65
2024/01/22 09:58:26;;;;;;;2.70;2.20;;;6.60;99.90;;;;;;5086613;28;20738;-68
2024/01/22 10:00:54;;;;;;;5.70;1.77;;;6.70;99.90;;;;;;5087946;28;20467;-68
2024/01/22 10:03:21;;;;;;;4.97;2.10;;;6.80;99.90;;;;;;5091697;28;20447;-67
2024/01/22 10:05:51;;;;;;;2.80;1.73;;;6.90;99.90;;;;;;5094104;28;20441;-64
2024/01/22 10:08:20;;;;;;;8.43;4.67;;;7.20;99.90;;;;;;5076773;28;20468;-65
2024/01/22 10:10:48;;;;;;;7.80;3.50;;;7.20;99.90;;;;;;5076138;28;21158;-66
2024/01/22 10:13:17;;;;;;;4.20;1.73;;;7.30;99.90;;;;;;5076517;28;20504;-63
2024/01/22 10:15:44;;;;;;;4.07;1.43;;;7.40;99.90;;;;;;5076045;28;20520;-66
2024/01/22 10:18:13;;;;;;;2.30;1.33;;;7.50;99.90;;;;;;5077483;28;20481;-66
2024/01/22 10:20:41;;;;;;;6.70;1.80;;;7.50;99.90;;;;;;5082963;28;20476;-63
2024/01/22 10:23:08;;;;;;;2.30;1.20;;;7.60;99.90;;;;;;5081768;28;20902;-66
2024/01/22 10:25:37;;;;;;;2.40;1.23;;;7.70;99.90;;;;;;5076373;28;20463;-65
2024/01/22 10:28:11;;;;;;;2.60;1.33;;;7.80;99.90;;;;;;5076441;28;20854;-63
2024/01/22 10:30:40;;;;;;;1.90;1.40;;;7.80;99.90;;;;;;5076237;28;20442;-67
2024/01/22 10:33:15;;;;;;;4.63;1.50;;;8.00;99.90;;;;;;5075152;28;20799;-66
2024/01/22 10:35:42;;;;;;;1.43;1.20;;;8.00;99.90;;;;;;5074619;28;20440;-67
2024/01/22 10:38:12;;;;;;;1.63;1.00;;;8.10;99.90;;;;;;5075767;28;20489;-66
2024/01/22 10:40:41;;;;;;;2.00;1.37;;;8.10;99.90;;;;;;5070755;28;20449;-64
2024/01/22 10:43:22;;;;;;;3.30;1.67;;;8.20;99.90;;;;;;5075548;28;20522;-65
2024/01/22 10:45:50;;;;;;;1.50;1.30;;;8.20;99.90;;;;;;5070538;28;20461;-66
2024/01/22 10:48:18;;;;;;;11.50;3.50;;;8.30;99.90;;;;;;5074729;28;20473;-67
2024/01/22 10:50:45;;;;;;;3.17;1.80;;;8.30;99.90;;;;;;5075735;28;20499;-65
2024/01/22 10:53:12;;;;;;;4.13;1.67;;;8.40;99.90;;;;;;5075745;28;20523;-64
2024/01/22 10:55:41;;;;;;;2.27;1.00;;;8.50;99.90;;;;;;5072449;28;20434;-63
2024/01/22 10:58:23;;;;;;;5.03;1.40;;;8.50;99.90;;;;;;5075988;28;20441;-66
2024/01/22 11:00:52;;;;;;;7.83;1.77;;;8.60;99.90;;;;;;5075627;28;20470;-66
2024/01/22 11:03:20;;;;;;;1.57;1.17;;;8.70;99.90;;;;;;5075479;28;20465;-69
2024/01/22 11:05:48;;;;;;;3.03;1.13;;;8.70;99.90;;;;;;5075500;28;20455;-67
2024/01/22 11:08:18;;;;;;;2.53;1.60;;;8.80;99.90;;;;;;5075295;28;20457;-65
2024/01/22 11:10:49;;;;;;;2.83;1.17;;;8.90;99.90;;;;;;5075552;28;20503;-67
2024/01/22 11:13:16;;;;;;;4.63;1.20;;;8.90;99.90;;;;;;5075315;28;20463;-68
2024/01/22 11:15:44;;;;;;;1.80;1.00;;;9.00;99.90;;;;;;5074884;28;20461;-68
2024/01/22 11:18:11;;;;;;;4.43;1.93;;;9.00;99.90;;;;;;5075501;28;20482;-68
2024/01/22 11:20:39;;;;;;;2.80;1.70;;;9.00;99.90;;;;;;5075468;28;20527;-67
2024/01/22 11:23:09;;;;;;;1.77;1.10;;;9.00;99.90;;;;;;5077968;28;20461;-68
2024/01/22 11:25:37;;;;;;;3.10;1.20;;;9.10;99.90;;;;;;5076519;28;20472;-65
2024/01/22 11:28:09;;;;;;;4.13;2.13;;;9.10;99.90;;;;;;5075100;28;20431;-67
2024/01/22 11:30:38;;;;;;;3.57;2.00;;;9.20;99.90;;;;;;5074391;28;20478;-66
2024/01/22 11:33:32;;;;;;;6.60;2.00;;;9.20;99.90;;;;;;5074797;28;20851;-66
2024/01/22 11:36:01;;;;;;;3.93;1.90;;;9.30;99.90;;;;;;5072408;28;20522;-66
2024/01/22 11:38:51;;;;;;;1.93;1.20;;;9.30;99.90;;;;;;5075146;28;20518;-68
2024/01/22 11:41:34;;;;;;;3.03;1.17;;;9.40;99.90;;;;;;5072338;28;20466;-68
2024/01/22 11:44:03;;;;;;;2.07;1.30;;;9.40;99.90;;;;;;5071272;28;20818;-66
2024/01/22 11:46:30;;;;;;;1.60;1.03;;;9.40;99.90;;;;;;5072633;28;20476;-65
2024/01/22 11:48:56;;;;;;;2.03;1.30;;;9.40;99.90;;;;;;5074514;28;20507;-65
2024/01/22 11:51:27;;;;;;;1.60;1.10;;;9.50;99.90;;;;;;5074692;28;20506;-64
2024/01/22 11:53:56;;;;;;;2.77;1.30;;;9.50;99.90;;;;;;5074796;28;20477;-68
2024/01/22 11:56:23;;;;;;;4.13;1.40;;;9.50;99.90;;;;;;5074421;28;20453;-66
2024/01/22 11:59:01;;;;;;;1.77;1.20;;;9.50;99.90;;;;;;5074678;28;20439;-67
2024/01/22 12:01:30;;;;;;;5.10;1.60;;;9.60;99.90;;;;;;5074237;28;20493;-65
2024/01/22 12:04:09;;;;;;;2.07;1.53;;;9.60;99.90;;;;;;5074313;28;20477;-69
2024/01/22 12:06:48;;;;;;;3.43;1.27;;;9.50;99.90;;;;;;5074239;28;20539;-66
2024/01/22 12:09:15;;;;;;;1.20;0.70;;;9.60;99.90;;;;;;5077100;28;21077;-69
2024/01/22 12:11:51;;;;;;;2.53;1.20;;;9.60;99.90;;;;;;5071742;28;20480;-67
2024/01/22 12:14:18;;;;;;;1.60;0.73;;;9.60;99.90;;;;;;5079220;28;20494;-68
2024/01/22 12:16:47;;;;;;;2.40;1.03;;;9.60;99.90;;;;;;5079413;28;20480;-68
2024/01/22 12:19:14;;;;;;;2.43;1.20;;;9.60;99.90;;;;;;5079006;28;20528;-65
2024/01/22 12:21:41;;;;;;;1.37;1.10;;;9.60;99.90;;;;;;5079955;28;20499;-69
2024/01/22 12:24:14;;;;;;;1.70;1.23;;;9.70;99.90;;;;;;5079579;28;20458;-67
2024/01/22 12:26:41;;;;;;;1.30;0.90;;;9.70;99.90;;;;;;5079562;28;20462;-67
2024/01/22 12:29:08;;;;;;;1.33;0.90;;;9.80;99.90;;;;;;5075829;28;20470;-66
2024/01/22 12:31:35;;;;;;;3.23;1.20;;;9.80;99.90;;;;;;5078738;28;20501;-66
2024/01/22 12:34:11;;;;;;;1.73;1.17;;;9.80;99.90;;;;;;5078453;28;20517;-66
2024/01/22 12:36:38;;;;;;;1.20;0.83;;;9.90;99.90;;;;;;5078890;28;20435;-65
2024/01/22 12:39:07;;;;;;;1.93;1.23;;;9.90;99.90;;;;;;5078232;28;20435;-65
2024/01/22 12:41:35;;;;;;;2.07;0.80;;;9.90;99.90;;;;;;5078318;28;21139;-67
2024/01/22 12:44:02;;;;;;;1.93;1.30;;;9.80;99.90;;;;;;5077342;28;20458;-67
2024/01/22 12:46:31;;;;;;;1.70;1.10;;;9.90;99.90;;;;;;5078375;28;20447;-66
2024/01/22 12:48:58;;;;;;;2.23;1.10;;;9.90;99.90;;;;;;5078065;28;20475;-67
2024/01/22 12:51:27;;;;;;;2.10;1.43;;;9.80;99.90;;;;;;5077841;28;20483;-69
2024/01/22 12:53:54;;;;;;;2.10;0.80;;;9.80;99.90;;;;;;5077356;28;20479;-65
2024/01/22 12:56:21;;;;;;;2.33;1.10;;;9.90;99.90;;;;;;5077686;28;20466;-66
2024/01/22 12:58:48;;;;;;;0.97;0.70;;;9.90;99.90;;;;;;5077229;28;20493;-69
2024/01/22 13:01:15;;;;;;;2.83;0.90;;;9.90;99.90;;;;;;5079098;28;20446;-65
2024/01/22 13:03:43;;;;;;;1.80;0.93;;;9.90;99.90;;;;;;5079451;28;20443;-66